createdAt,value
2019-02-10T00:01:41.499Z,73.40
2019-02-10T00:04:12.205Z,73.70
2019-02-10T00:06:41.942Z,73.30
2019-02-10T00:09:11.606Z,73.40
2019-02-10T00:11:41.946Z,73.50
2019-02-10T00:14:11.649Z,74.50
2019-02-10T00:16:41.347Z,73.70
2019-02-10T00:19:11.033Z,73.90
2019-02-10T00:21:41.189Z,73.90
2019-02-10T00:24:12.489Z,74.00
2019-02-10T00:26:42.419Z,74.10
2019-02-10T00:29:12.096Z,74.20
2019-02-10T00:31:42.095Z,75.10
2019-02-10T00:34:11.787Z,74.10
2019-02-10T00:36:41.564Z,74.10
2019-02-10T00:39:11.519Z,74.20
2019-02-10T00:41:41.267Z,73.80
2019-02-10T00:44:10.967Z,73.80
2019-02-10T00:46:40.653Z,73.80
2019-02-10T00:49:10.312Z,73.80
2019-02-10T00:51:40.002Z,73.40
2019-02-10T00:54:09.809Z,73.10
2019-02-10T00:56:39.476Z,73.50
2019-02-10T00:59:09.157Z,73.70
2019-02-10T01:01:38.823Z,74.10
2019-02-10T01:04:08.789Z,74.00
2019-02-10T01:06:41.463Z,73.80
2019-02-10T01:09:09.844Z,74.00
2019-02-10T01:11:39.913Z,73.80
2019-02-10T01:14:09.727Z,74.10
2019-02-10T01:16:39.433Z,74.00
2019-02-10T01:19:09.193Z,74.00
2019-02-10T01:21:38.921Z,74.00
2019-02-10T01:24:08.587Z,74.10
2019-02-10T01:26:38.294Z,74.50
2019-02-10T01:29:08.034Z,74.50
2019-02-10T01:31:37.781Z,74.70
2019-02-10T01:34:08.520Z,74.70
2019-02-10T01:36:38.208Z,74.80
2019-02-10T01:39:09.491Z,75.00
2019-02-10T01:41:39.188Z,75.00
2019-02-10T01:44:08.849Z,75.10
2019-02-10T01:46:38.557Z,75.20
2019-02-10T01:49:08.290Z,75.50
2019-02-10T01:51:37.967Z,75.30
2019-02-10T01:54:07.660Z,75.30
2019-02-10T01:56:37.316Z,75.30
2019-02-10T01:59:07.001Z,75.50
2019-02-10T02:01:36.709Z,75.70
2019-02-10T02:04:06.380Z,75.60
2019-02-10T02:06:36.040Z,75.70
2019-02-10T02:09:06.946Z,75.90
2019-02-10T02:11:36.596Z,75.90
2019-02-10T02:14:06.449Z,75.90
2019-02-10T02:16:36.107Z,75.90
2019-02-10T02:19:05.865Z,76.20
2019-02-10T02:21:35.602Z,76.50
2019-02-10T02:24:05.269Z,76.80
2019-02-10T02:26:35.035Z,76.50
2019-02-10T02:29:04.813Z,76.60
2019-02-10T02:31:34.554Z,76.60
2019-02-10T02:34:04.333Z,76.70
2019-02-10T02:36:35.714Z,76.70
2019-02-10T02:39:05.481Z,76.70
2019-02-10T02:41:35.219Z,76.50
2019-02-10T02:44:04.909Z,76.30
2019-02-10T02:46:34.685Z,76.00
2019-02-10T02:49:04.429Z,76.10
2019-02-10T02:51:34.115Z,76.20
2019-02-10T02:54:03.872Z,76.00
2019-02-10T02:56:33.585Z,76.00
2019-02-10T02:59:03.340Z,76.20
2019-02-10T03:01:33.110Z,76.30
2019-02-10T03:04:02.839Z,76.70
2019-02-10T03:06:34.176Z,76.80
2019-02-10T03:09:03.987Z,76.70
2019-02-10T03:11:34.046Z,76.90
2019-02-10T03:14:05.754Z,77.30
2019-02-10T03:16:35.523Z,77.70
2019-02-10T03:19:05.276Z,77.70
2019-02-10T03:21:35.032Z,78.50
2019-02-10T03:24:04.858Z,78.30
2019-02-10T03:26:34.620Z,78.20
2019-02-10T03:29:04.316Z,79.40
2019-02-10T03:31:34.043Z,79.20
2019-02-10T03:34:03.782Z,78.50
2019-02-10T03:36:33.562Z,78.50
2019-02-10T03:39:04.760Z,79.40
2019-02-10T03:41:34.511Z,78.20
2019-02-10T03:44:04.256Z,78.20
2019-02-10T03:46:33.945Z,78.40
2019-02-10T03:49:03.676Z,78.40
2019-02-10T03:51:33.424Z,78.50
2019-02-10T03:54:03.118Z,78.60
2019-02-10T03:56:32.912Z,78.70
2019-02-10T03:59:02.676Z,79.00
2019-02-10T04:01:32.416Z,79.00
2019-02-10T04:04:02.072Z,79.30
2019-02-10T04:06:31.824Z,80.10
2019-02-10T04:09:01.576Z,79.30
2019-02-10T04:11:32.702Z,79.10
2019-02-10T04:14:02.426Z,79.10
2019-02-10T04:16:32.185Z,79.30
2019-02-10T04:19:01.846Z,79.60
2019-02-10T04:21:31.548Z,79.50
2019-02-10T04:24:01.297Z,79.40
2019-02-10T04:26:30.968Z,79.50
2019-02-10T04:29:00.732Z,79.60
2019-02-10T04:31:30.403Z,79.10
2019-02-10T04:34:00.160Z,79.00
2019-02-10T04:36:29.900Z,78.70
2019-02-10T04:38:59.829Z,78.80
2019-02-10T04:41:29.508Z,79.00
2019-02-10T04:43:59.257Z,78.80
2019-02-10T04:46:28.975Z,78.70
2019-02-10T04:48:58.721Z,78.50
2019-02-10T04:51:28.426Z,78.50
2019-02-10T04:53:58.181Z,78.40
2019-02-10T04:56:27.910Z,78.30
2019-02-10T04:58:57.572Z,78.40
2019-02-10T05:01:27.278Z,78.40
2019-02-10T05:03:57.212Z,78.60
2019-02-10T05:06:26.944Z,78.40
2019-02-10T05:08:56.714Z,78.20
2019-02-10T05:11:26.468Z,78.10
2019-02-10T05:13:56.222Z,78.10
2019-02-10T05:16:25.981Z,78.00
2019-02-10T05:18:55.742Z,78.20
2019-02-10T05:21:25.479Z,78.10
2019-02-10T05:24:03.152Z,78.20
2019-02-10T05:26:26.588Z,78.10
2019-02-10T05:28:56.275Z,77.70
2019-02-10T05:31:26.029Z,77.60
2019-02-10T05:33:55.758Z,77.80
2019-02-10T05:36:25.425Z,77.80
2019-02-10T05:38:55.096Z,78.10
2019-02-10T05:41:24.831Z,77.80
2019-02-10T05:43:54.511Z,78.00
2019-02-10T05:46:24.195Z,78.10
2019-02-10T05:48:53.951Z,77.80
2019-02-10T05:51:23.619Z,77.70
2019-02-10T05:53:53.314Z,77.50
2019-02-10T05:56:23.077Z,77.20
2019-02-10T05:58:52.803Z,77.20
2019-02-10T06:02:02.603Z,77.20
2019-02-10T06:04:38.435Z,77.30
2019-02-10T06:07:11.432Z,77.10
2019-02-10T06:09:42.626Z,77.30
2019-02-10T06:12:12.369Z,77.10
2019-02-10T06:14:42.159Z,76.90
2019-02-10T06:17:11.928Z,76.60
2019-02-10T06:19:41.758Z,76.50
2019-02-10T06:22:11.492Z,76.50
2019-02-10T06:24:41.166Z,76.50
2019-02-10T06:27:10.828Z,76.40
2019-02-10T06:29:40.590Z,76.30
2019-02-10T06:32:10.265Z,76.40
2019-02-10T06:34:40.016Z,76.20
2019-02-10T06:37:09.792Z,76.20
2019-02-10T06:39:39.447Z,76.20
2019-02-10T06:42:09.192Z,76.20
2019-02-10T06:44:38.949Z,75.90
2019-02-10T06:47:08.611Z,75.70
2019-02-10T06:49:38.256Z,75.40
2019-02-10T06:52:07.948Z,75.30
2019-02-10T06:54:39.323Z,75.30
2019-02-10T06:57:09.082Z,75.20
2019-02-10T06:59:43.175Z,74.80
2019-02-10T07:02:29.564Z,75.00
2019-02-10T07:04:59.314Z,74.90
2019-02-10T07:07:29.068Z,74.70
2019-02-10T07:09:58.812Z,74.50
2019-02-10T07:12:46.386Z,74.50
2019-02-10T07:15:52.835Z,74.30
2019-02-10T07:18:59.379Z,74.30
2019-02-10T07:21:32.201Z,74.20
2019-02-10T07:24:24.805Z,74.10
2019-02-10T07:26:56.295Z,73.90
2019-02-10T07:29:56.520Z,73.90
2019-02-10T07:32:29.026Z,73.60
2019-02-10T07:35:07.767Z,73.40
2019-02-10T07:37:41.766Z,73.70
2019-02-10T07:40:29.576Z,73.20
2019-02-10T07:43:14.409Z,73.20
2019-02-10T07:46:09.760Z,73.50
2019-02-10T07:49:00.978Z,73.20
2019-02-10T07:51:50.206Z,73.10
2019-02-10T07:54:26.616Z,73.10
2019-02-10T07:57:20.831Z,73.10
2019-02-10T07:59:56.298Z,73.20
2019-02-10T08:02:41.181Z,73.20
2019-02-10T08:05:16.593Z,73.10
2019-02-10T08:08:04.520Z,72.80
2019-02-10T08:11:04.927Z,72.40
2019-02-10T08:13:46.632Z,72.20
2019-02-10T08:16:34.402Z,71.90
2019-02-10T08:19:28.179Z,72.40
2019-02-10T08:22:36.063Z,71.50
2019-02-10T08:25:42.470Z,71.40
2019-02-10T08:28:46.221Z,71.00
2019-02-10T08:31:35.833Z,70.70
2019-02-10T08:34:25.391Z,70.20
2019-02-10T08:37:18.161Z,70.00
2019-02-10T08:39:57.187Z,69.80
2019-02-10T08:42:30.171Z,69.80
2019-02-10T08:45:08.861Z,69.70
2019-02-10T08:47:47.377Z,70.10
2019-02-10T08:50:47.880Z,70.80
2019-02-10T08:53:21.051Z,71.60
2019-02-10T08:55:50.714Z,72.00
2019-02-10T08:58:20.417Z,72.60
2019-02-10T09:00:51.219Z,72.50
2019-02-10T09:03:20.913Z,72.80
2019-02-10T09:05:50.671Z,72.20
2019-02-10T09:08:20.452Z,72.40
2019-02-10T09:10:50.189Z,72.10
2019-02-10T09:13:19.958Z,72.30
2019-02-10T09:15:49.697Z,72.50
2019-02-10T09:18:19.452Z,72.60
2019-02-10T09:20:49.113Z,72.50
2019-02-10T09:23:18.882Z,72.40
2019-02-10T09:25:48.551Z,73.10
2019-02-10T09:28:18.236Z,72.20
2019-02-10T09:30:48.206Z,72.40
2019-02-10T09:33:18.255Z,72.70
2019-02-10T09:35:48.020Z,73.10
2019-02-10T09:38:17.752Z,73.30
2019-02-10T09:40:47.563Z,73.60
2019-02-10T09:43:17.349Z,73.60
2019-02-10T09:45:47.095Z,73.90
2019-02-10T09:48:19.000Z,73.70
2019-02-10T09:50:49.160Z,73.50
2019-02-10T09:53:19.734Z,73.70
2019-02-10T09:55:49.570Z,73.10
2019-02-10T09:58:19.299Z,73.00
2019-02-10T10:00:49.073Z,73.10
2019-02-10T10:03:18.816Z,73.10
2019-02-10T10:05:48.488Z,72.60
2019-02-10T10:08:18.226Z,72.40
2019-02-10T10:10:47.997Z,72.10
2019-02-10T10:13:17.719Z,71.70
2019-02-10T10:15:47.431Z,71.50
2019-02-10T10:18:17.551Z,71.70
2019-02-10T10:20:47.242Z,71.40
2019-02-10T10:23:16.909Z,71.40
2019-02-10T10:25:46.709Z,70.90
2019-02-10T10:28:16.405Z,70.90
2019-02-10T10:30:46.119Z,71.00
2019-02-10T10:33:15.929Z,70.80
2019-02-10T10:35:45.691Z,70.30
2019-02-10T10:38:15.356Z,70.10
2019-02-10T10:40:45.063Z,69.50
2019-02-10T10:43:14.833Z,69.30
2019-02-10T10:45:44.584Z,69.20
2019-02-10T10:48:14.346Z,69.00
2019-02-10T10:50:44.091Z,68.60
2019-02-10T10:53:13.850Z,67.40
2019-02-10T10:55:43.532Z,67.70
2019-02-10T10:58:13.285Z,67.50
2019-02-10T11:00:43.042Z,66.60
2019-02-10T11:03:12.804Z,65.90
2019-02-10T11:05:42.469Z,64.00
2019-02-10T11:08:12.147Z,62.30
2019-02-10T11:10:41.886Z,60.70
2019-02-10T11:13:11.643Z,59.60
2019-02-10T11:15:42.654Z,58.50
2019-02-10T11:18:12.401Z,57.90
2019-02-10T11:20:42.104Z,57.40
2019-02-10T11:23:11.881Z,56.50
2019-02-10T11:25:41.627Z,55.70
2019-02-10T11:28:11.335Z,55.40
2019-02-10T11:30:41.104Z,55.30
2019-02-10T11:33:10.804Z,54.90
2019-02-10T11:35:42.343Z,54.70
2019-02-10T11:38:12.114Z,54.70
2019-02-10T11:40:41.832Z,54.40
2019-02-10T11:43:11.584Z,54.20
2019-02-10T11:45:41.352Z,54.00
2019-02-10T11:48:11.042Z,53.60
2019-02-10T11:50:40.757Z,53.70
2019-02-10T11:53:10.526Z,53.80
2019-02-10T11:55:40.251Z,53.60
2019-02-10T11:58:11.107Z,53.20
2019-02-10T12:00:40.868Z,53.10
2019-02-10T12:03:10.536Z,53.10
2019-02-10T12:05:40.296Z,52.60
2019-02-10T12:08:10.047Z,52.10
2019-02-10T12:10:39.802Z,51.70
2019-02-10T12:13:09.540Z,51.20
2019-02-10T12:15:40.465Z,50.90
2019-02-10T12:18:10.258Z,50.90
2019-02-10T12:20:39.995Z,51.20
2019-02-10T12:23:09.731Z,50.70
2019-02-10T12:25:39.510Z,50.00
2019-02-10T12:28:09.364Z,49.30
2019-02-10T12:30:39.112Z,49.50
2019-02-10T12:33:08.933Z,49.50
2019-02-10T12:35:38.665Z,49.80
2019-02-10T12:38:08.426Z,50.50
2019-02-10T12:40:38.264Z,50.30
2019-02-10T12:43:07.994Z,50.40
2019-02-10T12:45:37.763Z,50.60
2019-02-10T12:48:07.512Z,50.50
2019-02-10T12:50:37.555Z,50.50
2019-02-10T12:53:07.288Z,50.70
2019-02-10T12:55:37.018Z,50.60
2019-02-10T12:58:06.696Z,50.60
2019-02-10T13:00:37.948Z,50.70
2019-02-10T13:03:07.728Z,50.70
2019-02-10T13:05:37.483Z,50.90
2019-02-10T13:08:07.285Z,50.80
2019-02-10T13:10:36.974Z,51.00
2019-02-10T13:13:06.701Z,51.20
2019-02-10T13:15:37.298Z,51.00
2019-02-10T13:18:07.116Z,51.10
2019-02-10T13:20:37.627Z,51.40
2019-02-10T13:23:08.472Z,51.40
2019-02-10T13:25:39.192Z,51.20
2019-02-10T13:28:08.980Z,51.10
2019-02-10T13:30:38.819Z,50.90
2019-02-10T13:33:08.616Z,51.00
2019-02-10T13:35:38.369Z,51.00
2019-02-10T13:38:08.086Z,51.30
2019-02-10T13:40:37.826Z,51.30
2019-02-10T13:43:07.535Z,51.20
2019-02-10T13:45:37.306Z,51.20
2019-02-10T13:48:06.975Z,51.20
2019-02-10T13:50:36.748Z,51.20
2019-02-10T13:53:06.485Z,51.10
2019-02-10T13:55:37.347Z,51.00
2019-02-10T13:58:07.097Z,50.90
2019-02-10T14:00:36.886Z,51.00
2019-02-10T14:03:06.605Z,50.70
2019-02-10T14:05:36.352Z,51.10
2019-02-10T14:08:06.066Z,51.10
2019-02-10T14:10:35.929Z,51.90
2019-02-10T14:13:05.698Z,51.30
2019-02-10T14:15:35.443Z,50.30
2019-02-10T14:18:05.218Z,49.80
2019-02-10T14:20:34.971Z,50.00
2019-02-10T14:23:04.782Z,50.60
2019-02-10T14:25:35.023Z,50.60
2019-02-10T14:28:04.903Z,50.10
2019-02-10T14:30:34.741Z,50.20
2019-02-10T14:33:04.478Z,50.80
2019-02-10T14:35:35.135Z,51.50
2019-02-10T14:38:04.878Z,52.20
2019-02-10T14:40:34.634Z,53.20
2019-02-10T14:43:04.418Z,54.50
2019-02-10T14:45:34.165Z,55.60
2019-02-10T14:48:03.823Z,59.40
2019-02-10T14:50:33.594Z,63.00
2019-02-10T14:53:03.328Z,66.10
2019-02-10T14:55:33.010Z,68.00
2019-02-10T14:58:02.671Z,69.10
2019-02-10T15:00:32.374Z,70.10
2019-02-10T15:03:02.482Z,71.20
2019-02-10T15:05:32.187Z,71.90
2019-02-10T15:08:02.185Z,71.70
2019-02-10T15:10:32.402Z,72.20
2019-02-10T15:13:02.412Z,72.20
2019-02-10T15:15:32.483Z,73.00
2019-02-10T15:18:02.872Z,73.30
2019-02-10T15:20:32.727Z,73.90
2019-02-10T15:23:04.072Z,75.10
2019-02-10T15:25:34.219Z,75.70
2019-02-10T15:28:04.316Z,76.60
2019-02-10T15:30:34.533Z,77.40
2019-02-10T15:33:04.320Z,77.50
2019-02-10T15:35:34.364Z,77.60
2019-02-10T15:38:04.124Z,78.10
2019-02-10T15:40:33.840Z,78.40
2019-02-10T15:43:03.531Z,78.50
2019-02-10T15:45:33.201Z,78.80
2019-02-10T15:48:03.220Z,78.90
2019-02-10T15:50:33.649Z,78.90
2019-02-10T15:53:04.172Z,78.60
2019-02-10T15:55:33.916Z,79.30
2019-02-10T15:58:04.002Z,79.90
2019-02-10T16:00:33.972Z,79.60
2019-02-10T16:03:03.845Z,79.90
2019-02-10T16:05:33.584Z,80.30
2019-02-10T16:08:03.274Z,80.50
2019-02-10T16:10:33.608Z,80.80
2019-02-10T16:13:03.902Z,81.20
2019-02-10T16:15:35.189Z,81.40
2019-02-10T16:18:05.268Z,81.10
2019-02-10T16:20:35.497Z,80.80
2019-02-10T16:23:05.710Z,80.90
2019-02-10T16:25:35.650Z,81.00
2019-02-10T16:28:07.139Z,80.80
2019-02-10T16:30:37.399Z,80.50
2019-02-10T16:33:07.533Z,80.50
2019-02-10T16:35:37.396Z,80.20
2019-02-10T16:38:07.174Z,81.00
2019-02-10T16:40:37.067Z,80.70
2019-02-10T16:43:06.752Z,80.10
2019-02-10T16:45:36.518Z,80.00
2019-02-10T16:48:06.240Z,80.20
2019-02-10T16:50:35.922Z,79.70
2019-02-10T16:53:05.695Z,79.70
2019-02-10T16:55:35.373Z,79.50
2019-02-10T16:58:05.045Z,79.70
2019-02-10T17:00:34.705Z,80.10
2019-02-10T17:03:04.472Z,80.40
2019-02-10T17:05:34.389Z,78.80
2019-02-10T17:08:04.070Z,78.60
2019-02-10T17:10:33.820Z,80.30
2019-02-10T17:13:03.600Z,80.70
2019-02-10T17:15:33.354Z,81.50
2019-02-10T17:18:07.055Z,81.90
2019-02-10T17:20:36.927Z,82.20
2019-02-10T17:23:06.911Z,82.70
2019-02-10T17:25:37.549Z,82.70
2019-02-10T17:28:07.305Z,82.00
2019-02-10T17:30:37.066Z,83.40
2019-02-10T17:33:06.801Z,82.80
2019-02-10T17:35:36.564Z,83.10
2019-02-10T17:38:06.317Z,82.80
2019-02-10T17:40:39.214Z,83.40
2019-02-10T17:43:08.957Z,83.20
2019-02-10T17:45:38.711Z,83.40
2019-02-10T17:48:08.364Z,83.40
2019-02-10T17:50:38.126Z,83.70
2019-02-10T17:53:07.889Z,83.50
2019-02-10T17:55:37.664Z,84.10
2019-02-10T17:58:07.411Z,84.20
2019-02-10T18:00:48.038Z,83.70
2019-02-10T18:03:18.462Z,82.70
2019-02-10T18:05:48.331Z,82.70
2019-02-10T18:08:22.941Z,82.70
2019-02-10T18:10:53.008Z,82.60
2019-02-10T18:13:23.034Z,83.00
2019-02-10T18:16:04.134Z,82.70
2019-02-10T18:18:54.012Z,82.50
2019-02-10T18:21:28.078Z,82.70
2019-02-10T18:24:08.711Z,81.70
2019-02-10T18:26:49.444Z,81.40
2019-02-10T18:29:37.400Z,80.90
2019-02-10T18:32:12.097Z,80.60
2019-02-10T18:34:46.284Z,80.80
2019-02-10T18:37:34.378Z,80.30
2019-02-10T18:40:10.161Z,80.00
2019-02-10T18:42:44.858Z,79.50
2019-02-10T18:45:25.414Z,79.30
2019-02-10T18:48:05.885Z,79.00
2019-02-10T18:50:40.507Z,79.10
2019-02-10T18:53:11.970Z,78.60
2019-02-10T18:55:55.256Z,78.80
2019-02-10T18:58:26.921Z,78.50
2019-02-10T19:01:13.684Z,78.70
2019-02-10T19:03:47.867Z,78.20
2019-02-10T19:06:19.423Z,78.10
2019-02-10T19:09:03.898Z,78.40
2019-02-10T19:11:34.964Z,77.70
2019-02-10T19:14:15.300Z,77.90
2019-02-10T19:17:03.138Z,77.60
2019-02-10T19:19:39.595Z,77.30
2019-02-10T19:22:13.983Z,77.50
2019-02-10T19:24:51.454Z,77.70
2019-02-10T19:27:39.625Z,77.50
2019-02-10T19:30:12.473Z,77.80
2019-02-10T19:32:46.505Z,78.00
2019-02-10T19:35:17.927Z,78.20
2019-02-10T19:37:49.322Z,77.70
2019-02-10T19:40:37.297Z,77.60
2019-02-10T19:43:26.711Z,77.50
2019-02-10T19:45:58.067Z,77.90
2019-02-10T19:48:29.386Z,77.80
2019-02-10T19:51:06.612Z,77.80
2019-02-10T19:53:37.919Z,78.00
2019-02-10T19:56:15.219Z,78.20
2019-02-10T19:59:02.734Z,78.40
2019-02-10T20:01:42.768Z,78.20
2019-02-10T20:04:19.883Z,78.00
2019-02-10T20:06:58.436Z,78.00
2019-02-10T20:09:29.837Z,77.80
2019-02-10T20:12:09.951Z,77.80
2019-02-10T20:14:44.296Z,77.60
2019-02-10T20:17:15.617Z,77.50
2019-02-10T20:19:49.733Z,77.40
2019-02-10T20:22:27.113Z,77.10
2019-02-10T20:24:58.531Z,76.90
2019-02-10T20:27:47.937Z,76.10
2019-02-10T20:30:21.918Z,76.10
2019-02-10T20:32:59.383Z,76.30
2019-02-10T20:35:51.586Z,76.20
2019-02-10T20:38:23.951Z,76.20
2019-02-10T20:40:56.784Z,76.20
2019-02-10T20:43:44.682Z,75.60
2019-02-10T20:46:27.348Z,75.30
2019-02-10T20:49:05.793Z,75.40
2019-02-10T20:51:46.765Z,75.30
2019-02-10T20:54:35.601Z,74.80
2019-02-10T20:57:07.025Z,73.80
2019-02-10T20:59:47.135Z,73.70
2019-02-10T21:02:24.488Z,73.80
2019-02-10T21:05:12.204Z,73.80
2019-02-10T21:07:49.360Z,74.00
2019-02-10T21:10:26.651Z,74.20
2019-02-10T21:13:03.691Z,74.00
2019-02-10T21:15:51.555Z,74.00
2019-02-10T21:18:41.060Z,74.20
2019-02-10T21:21:24.509Z,74.00
2019-02-10T21:24:13.010Z,74.50
2019-02-10T21:27:01.345Z,73.50
2019-02-10T21:29:42.931Z,73.70
2019-02-10T21:32:15.188Z,73.40
2019-02-10T21:34:46.753Z,73.50
2019-02-10T21:37:21.017Z,74.00
2019-02-10T21:39:52.316Z,73.20
2019-02-10T21:42:35.877Z,73.70
2019-02-10T21:45:11.963Z,73.60
2019-02-10T21:47:46.247Z,73.60
2019-02-10T21:50:15.924Z,73.60
2019-02-10T21:52:45.674Z,73.10
2019-02-10T21:55:16.585Z,73.20
2019-02-10T21:57:46.400Z,73.10
2019-02-10T22:00:16.132Z,73.20
2019-02-10T22:02:45.902Z,73.10
2019-02-10T22:05:15.657Z,73.10
2019-02-10T22:07:45.307Z,73.20
2019-02-10T22:10:15.022Z,73.80
2019-02-10T22:12:44.747Z,74.30
2019-02-10T22:15:14.432Z,74.40
2019-02-10T22:17:44.209Z,74.30
2019-02-10T22:20:13.967Z,74.80
2019-02-10T22:22:43.709Z,75.10
2019-02-10T22:25:13.466Z,75.10
2019-02-10T22:27:43.204Z,75.30
2019-02-10T22:30:15.728Z,75.40
2019-02-10T22:32:46.886Z,78.50
2019-02-10T22:35:17.999Z,76.60
2019-02-10T22:37:48.484Z,77.10
2019-02-10T22:40:19.134Z,77.50
2019-02-10T22:42:49.445Z,78.50
2019-02-10T22:45:20.954Z,78.10
2019-02-10T22:47:53.739Z,78.30
2019-02-10T22:50:23.425Z,78.50
2019-02-10T22:52:53.308Z,79.00
2019-02-10T22:55:28.774Z,79.50
2019-02-10T22:57:58.442Z,79.50
2019-02-10T23:00:44.375Z,79.80
2019-02-10T23:03:14.065Z,80.00
2019-02-10T23:05:44.930Z,80.00
2019-02-10T23:08:14.694Z,80.60
2019-02-10T23:10:45.301Z,80.60
2019-02-10T23:13:18.615Z,80.30
2019-02-10T23:15:49.894Z,80.00
2019-02-10T23:18:19.617Z,80.30
2019-02-10T23:20:49.359Z,80.00
2019-02-10T23:23:19.045Z,80.00
2019-02-10T23:25:50.128Z,80.10
2019-02-10T23:28:19.868Z,80.00
2019-02-10T23:30:49.579Z,80.00
2019-02-10T23:33:19.304Z,80.20
2019-02-10T23:35:49.020Z,80.30
2019-02-10T23:38:18.751Z,80.30
2019-02-10T23:40:50.000Z,80.30
2019-02-10T23:43:19.704Z,80.40
2019-02-10T23:45:49.475Z,80.30
2019-02-10T23:48:19.167Z,80.80
2019-02-10T23:50:48.851Z,80.90
2019-02-10T23:53:18.619Z,81.40
2019-02-10T23:55:50.824Z,81.80
2019-02-10T23:58:20.502Z,81.70
